createdAt,value
2022-08-07T00:01:44.704Z,20.00
2022-08-07T00:04:09.620Z,19.90
2022-08-07T00:06:51.256Z,19.80
2022-08-07T00:09:29.144Z,19.80
2022-08-07T00:12:02.070Z,19.70
2022-08-07T00:14:31.760Z,19.70
2022-08-07T00:17:02.559Z,19.90
2022-08-07T00:19:59.860Z,19.60
2022-08-07T00:22:34.535Z,19.60
2022-08-07T00:25:07.006Z,19.60
2022-08-07T00:27:52.580Z,19.50
2022-08-07T00:30:27.644Z,19.50
2022-08-07T00:32:57.531Z,19.50
2022-08-07T00:35:29.769Z,19.40
2022-08-07T00:37:59.039Z,19.40
2022-08-07T00:40:40.024Z,19.40
2022-08-07T00:43:10.575Z,19.40
2022-08-07T00:45:59.326Z,19.30
2022-08-07T00:48:30.901Z,19.20
2022-08-07T00:51:03.084Z,19.20
2022-08-07T00:53:39.395Z,19.10
2022-08-07T00:56:19.861Z,19.10
2022-08-07T00:58:49.750Z,19.10
2022-08-07T01:01:20.441Z,19.00
2022-08-07T01:03:56.150Z,19.00
2022-08-07T01:06:30.402Z,19.00
2022-08-07T01:09:02.848Z,19.00
2022-08-07T01:12:09.489Z,18.90
2022-08-07T01:14:28.435Z,18.90
2022-08-07T01:16:58.566Z,18.90
2022-08-07T01:19:32.159Z,18.80
2022-08-07T01:22:08.921Z,18.70
2022-08-07T01:24:48.039Z,18.70
2022-08-07T01:27:32.130Z,18.70
2022-08-07T01:30:02.754Z,18.70
2022-08-07T01:32:31.865Z,18.60
2022-08-07T01:35:02.473Z,18.60
2022-08-07T01:37:33.949Z,18.50
2022-08-07T01:40:05.899Z,18.50
2022-08-07T01:42:57.213Z,18.50
2022-08-07T01:45:36.199Z,18.40
2022-08-07T01:48:20.774Z,18.40
2022-08-07T01:51:24.673Z,18.30
2022-08-07T01:54:08.442Z,18.30
2022-08-07T01:56:49.430Z,18.40
2022-08-07T01:59:31.192Z,18.20
2022-08-07T02:02:06.136Z,18.20
2022-08-07T02:04:55.662Z,18.10
2022-08-07T02:07:35.896Z,18.00
2022-08-07T02:10:16.593Z,18.00
2022-08-07T02:12:50.211Z,18.10
2022-08-07T02:15:27.923Z,17.90
2022-08-07T02:17:59.900Z,17.90
2022-08-07T02:20:31.663Z,17.90
2022-08-07T02:23:04.836Z,18.00
2022-08-07T02:26:31.301Z,17.90
2022-08-07T02:28:30.855Z,17.90
2022-08-07T02:31:18.886Z,17.80
2022-08-07T02:34:03.446Z,17.80
2022-08-07T02:36:39.392Z,17.80
2022-08-07T02:39:17.473Z,17.80
2022-08-07T02:42:10.257Z,17.70
2022-08-07T02:44:48.758Z,17.70
2022-08-07T02:47:23.632Z,17.70
2022-08-07T02:49:59.563Z,17.60
2022-08-07T02:52:37.313Z,17.60
2022-08-07T02:55:15.398Z,17.60
2022-08-07T02:58:04.206Z,17.50
2022-08-07T03:00:36.338Z,17.50
2022-08-07T03:03:13.611Z,17.60
2022-08-07T03:05:46.343Z,17.50
2022-08-07T03:08:17.911Z,17.40
2022-08-07T03:10:56.989Z,17.40
2022-08-07T03:13:38.893Z,17.40
2022-08-07T03:16:22.999Z,17.40
2022-08-07T03:18:57.468Z,17.40
2022-08-07T03:21:26.650Z,17.30
2022-08-07T03:24:20.966Z,17.30
2022-08-07T03:27:10.268Z,17.30
2022-08-07T03:29:51.278Z,17.30
2022-08-07T03:32:29.621Z,17.30
2022-08-07T03:35:17.556Z,17.20
2022-08-07T03:37:55.179Z,17.20
2022-08-07T03:40:31.075Z,17.20
2022-08-07T03:43:10.117Z,17.20
2022-08-07T03:45:48.689Z,17.10
2022-08-07T03:48:21.817Z,17.10
2022-08-07T03:50:55.873Z,17.10
2022-08-07T03:54:05.984Z,17.10
2022-08-07T03:56:33.159Z,17.10
2022-08-07T03:59:13.020Z,17.00
2022-08-07T04:01:50.870Z,17.00
2022-08-07T04:04:23.293Z,17.00
2022-08-07T04:06:58.506Z,17.00
2022-08-07T04:09:45.103Z,16.90
2022-08-07T04:12:25.887Z,16.90
2022-08-07T04:14:58.567Z,16.90
2022-08-07T04:18:57.906Z,16.80
2022-08-07T04:20:20.281Z,16.80
2022-08-07T04:22:53.685Z,16.80
2022-08-07T04:25:31.554Z,16.80
2022-08-07T04:28:08.643Z,16.90
2022-08-07T04:30:43.943Z,16.90
2022-08-07T04:33:31.002Z,16.80
2022-08-07T04:36:06.625Z,16.90
2022-08-07T04:38:35.984Z,16.90
2022-08-07T04:41:05.394Z,16.90
2022-08-07T04:44:12.165Z,17.00
2022-08-07T04:47:04.319Z,16.80
2022-08-07T04:49:57.505Z,16.90
2022-08-07T04:52:50.978Z,16.80
2022-08-07T04:58:13.924Z,16.90
2022-08-07T04:59:09.153Z,16.80
2022-08-07T05:01:33.346Z,16.80
2022-08-07T05:04:17.395Z,16.80
2022-08-07T05:07:19.447Z,16.80
2022-08-07T05:09:59.406Z,16.80
2022-08-07T05:12:37.858Z,16.80
2022-08-07T05:15:23.788Z,16.80
2022-08-07T05:18:10.402Z,16.80
2022-08-07T05:20:45.410Z,16.80
2022-08-07T05:23:29.087Z,16.80
2022-08-07T05:26:13.091Z,16.80
2022-08-07T05:28:50.002Z,16.80
2022-08-07T05:31:23.023Z,16.70
2022-08-07T05:34:04.297Z,16.70
2022-08-07T05:36:39.085Z,16.90
2022-08-07T05:40:05.819Z,16.70
2022-08-07T05:42:12.442Z,16.70
2022-08-07T05:44:46.724Z,16.70
2022-08-07T05:48:01.761Z,16.70
2022-08-07T05:50:23.875Z,16.70
2022-08-07T05:52:52.375Z,16.70
2022-08-07T05:55:23.094Z,16.70
2022-08-07T05:58:13.039Z,16.70
2022-08-07T06:00:46.234Z,16.70
2022-08-07T06:03:21.843Z,16.70
2022-08-07T06:05:56.698Z,16.70
2022-08-07T06:08:31.272Z,16.70
2022-08-07T06:11:03.831Z,16.70
2022-08-07T06:14:12.148Z,16.70
2022-08-07T06:16:24.430Z,16.70
2022-08-07T06:18:59.219Z,16.70
2022-08-07T06:22:15.897Z,16.70
2022-08-07T06:24:45.795Z,16.70
2022-08-07T06:27:07.869Z,16.80
2022-08-07T06:29:38.993Z,16.80
2022-08-07T06:32:08.743Z,16.80
2022-08-07T06:34:37.093Z,16.90
2022-08-07T06:37:09.821Z,16.90
2022-08-07T06:40:15.632Z,16.90
2022-08-07T06:42:38.118Z,17.00
2022-08-07T06:45:13.003Z,17.00
2022-08-07T06:47:58.399Z,17.10
2022-08-07T06:50:43.114Z,17.10
2022-08-07T06:54:11.746Z,17.10
2022-08-07T06:56:03.827Z,17.20
2022-08-07T07:00:13.123Z,17.20
2022-08-07T07:01:33.133Z,17.20
2022-08-07T07:04:28.545Z,17.30
2022-08-07T07:07:18.942Z,17.40
2022-08-07T07:09:55.433Z,17.40
2022-08-07T07:12:38.243Z,17.50
2022-08-07T07:15:23.988Z,17.50
2022-08-07T07:18:05.551Z,17.60
2022-08-07T07:20:39.343Z,17.60
2022-08-07T07:24:09.336Z,17.70
2022-08-07T07:26:34.549Z,17.70
2022-08-07T07:29:56.635Z,17.80
2022-08-07T07:31:51.640Z,18.00
2022-08-07T07:34:31.240Z,18.00
2022-08-07T07:37:14.258Z,18.10
2022-08-07T07:39:52.168Z,18.10
2022-08-07T07:42:29.963Z,18.20
2022-08-07T07:45:03.107Z,18.30
2022-08-07T07:47:42.987Z,18.40
2022-08-07T07:50:34.011Z,18.50
2022-08-07T07:53:13.528Z,18.60
2022-08-07T07:55:57.451Z,18.70
2022-08-07T07:58:30.175Z,18.90
2022-08-07T08:01:00.312Z,19.00
2022-08-07T08:04:09.522Z,19.10
2022-08-07T08:06:48.117Z,19.30
2022-08-07T08:09:23.511Z,19.40
2022-08-07T08:12:01.939Z,19.50
2022-08-07T08:14:34.445Z,19.70
2022-08-07T08:17:55.554Z,19.90
2022-08-07T08:20:18.006Z,20.00
2022-08-07T08:23:14.438Z,20.30
2022-08-07T08:26:06.844Z,20.50
2022-08-07T08:28:43.315Z,20.70
2022-08-07T08:31:22.799Z,20.90
2022-08-07T08:34:26.959Z,21.10
2022-08-07T08:36:58.617Z,21.30
2022-08-07T08:39:39.425Z,21.50
2022-08-07T08:42:26.149Z,21.60
2022-08-07T08:45:13.284Z,21.90
2022-08-07T08:47:52.727Z,22.00
2022-08-07T08:50:35.039Z,22.10
2022-08-07T08:53:29.440Z,22.20
2022-08-07T08:56:02.702Z,22.30
2022-08-07T08:58:42.729Z,22.50
2022-08-07T09:01:18.607Z,22.60
2022-08-07T09:03:59.552Z,22.80
2022-08-07T09:06:52.322Z,22.80
2022-08-07T09:09:43.363Z,23.00
2022-08-07T09:12:30.936Z,23.10
2022-08-07T09:16:25.929Z,23.40
2022-08-07T09:18:36.639Z,23.40
2022-08-07T09:21:34.122Z,23.50
2022-08-07T09:24:33.425Z,23.60
2022-08-07T09:27:18.016Z,23.70
2022-08-07T09:30:05.592Z,23.80
2022-08-07T09:32:58.390Z,24.00
2022-08-07T09:36:04.425Z,24.00
2022-08-07T09:38:50.132Z,24.20
2022-08-07T09:41:36.458Z,24.30
2022-08-07T09:44:46.480Z,24.40
2022-08-07T09:47:59.545Z,24.50
2022-08-07T09:50:34.416Z,24.60
2022-08-07T09:53:07.456Z,24.60
2022-08-07T09:56:06.592Z,24.70
2022-08-07T09:59:44.363Z,24.70
2022-08-07T10:02:54.998Z,24.80
2022-08-07T10:06:03.538Z,24.90
2022-08-07T10:09:10.208Z,24.90
2022-08-07T10:12:15.120Z,25.00
2022-08-07T10:15:15.049Z,25.10
2022-08-07T10:18:11.129Z,25.20
2022-08-07T10:20:50.295Z,25.40
2022-08-07T10:24:06.734Z,25.60
2022-08-07T10:26:53.939Z,25.80
2022-08-07T10:30:01.900Z,26.10
2022-08-07T10:32:54.154Z,26.40
2022-08-07T10:35:53.597Z,26.70
2022-08-07T10:38:47.839Z,26.90
2022-08-07T10:41:52.393Z,27.20
2022-08-07T10:44:28.335Z,27.40
2022-08-07T10:47:27.122Z,27.60
2022-08-07T10:50:16.229Z,27.70
2022-08-07T10:52:59.962Z,27.90
2022-08-07T10:55:46.788Z,28.10
2022-08-07T10:58:46.099Z,28.30
2022-08-07T11:01:52.016Z,28.50
2022-08-07T11:04:59.649Z,28.70
2022-08-07T11:07:58.507Z,28.80
2022-08-07T11:10:37.224Z,28.90
2022-08-07T11:14:42.056Z,29.00
2022-08-07T11:16:10.441Z,29.00
2022-08-07T11:18:51.904Z,29.10
2022-08-07T11:21:32.523Z,29.20
2022-08-07T11:24:18.833Z,29.20
2022-08-07T11:26:53.949Z,29.30
2022-08-07T11:29:43.596Z,29.50
2022-08-07T11:32:25.235Z,29.70
2022-08-07T11:34:59.278Z,29.90
2022-08-07T11:37:58.243Z,30.00
2022-08-07T11:40:57.284Z,30.20
2022-08-07T11:43:54.249Z,30.30
2022-08-07T11:46:38.130Z,30.30
2022-08-07T11:49:51.155Z,30.40
2022-08-07T11:52:41.181Z,30.30
2022-08-07T11:56:09.165Z,30.30
2022-08-07T11:58:21.315Z,30.20
2022-08-07T12:01:22.055Z,30.20
2022-08-07T12:04:17.317Z,30.20
2022-08-07T12:07:01.048Z,30.20
2022-08-07T12:09:49.984Z,30.20
2022-08-07T12:12:25.341Z,30.20
2022-08-07T12:15:01.879Z,30.30
2022-08-07T12:17:58.749Z,30.40
2022-08-07T12:20:36.357Z,30.50
2022-08-07T12:24:06.927Z,30.60
2022-08-07T12:26:46.398Z,30.70
2022-08-07T12:29:38.176Z,30.80
2022-08-07T12:32:18.685Z,30.90
2022-08-07T12:34:55.824Z,31.00
2022-08-07T12:37:27.738Z,31.10
2022-08-07T12:39:59.756Z,31.20
2022-08-07T12:42:32.403Z,31.30
2022-08-07T12:45:08.703Z,31.40
2022-08-07T12:47:49.211Z,31.50
2022-08-07T12:50:39.346Z,31.60
2022-08-07T12:53:22.154Z,31.60
2022-08-07T12:56:02.844Z,31.70
2022-08-07T12:58:40.157Z,31.80
2022-08-07T13:01:28.024Z,31.80
2022-08-07T13:04:34.567Z,32.00
2022-08-07T13:08:13.682Z,32.00
2022-08-07T13:10:51.890Z,32.10
2022-08-07T13:13:48.606Z,32.20
2022-08-07T13:16:30.689Z,32.30
2022-08-07T13:19:21.699Z,32.40
2022-08-07T13:22:03.053Z,32.50
2022-08-07T13:24:43.897Z,32.60
2022-08-07T13:28:05.612Z,32.70
2022-08-07T13:30:19.062Z,32.80
2022-08-07T13:34:14.400Z,32.80
2022-08-07T13:36:09.059Z,32.90
2022-08-07T13:38:54.216Z,32.90
2022-08-07T13:41:35.684Z,32.90
2022-08-07T13:44:12.964Z,32.90
2022-08-07T13:46:49.469Z,32.90
2022-08-07T13:50:33.596Z,32.90
2022-08-07T13:52:23.112Z,32.90
2022-08-07T13:54:59.169Z,32.90
2022-08-07T13:57:37.570Z,32.90
2022-08-07T14:00:26.472Z,32.90
2022-08-07T14:02:57.585Z,32.90
2022-08-07T14:05:37.171Z,32.90
2022-08-07T14:08:09.046Z,32.90
2022-08-07T14:10:42.460Z,32.90
2022-08-07T14:13:17.995Z,32.90
2022-08-07T14:15:57.054Z,32.80
2022-08-07T14:18:33.238Z,32.70
2022-08-07T14:21:21.062Z,32.70
2022-08-07T14:24:03.687Z,32.60
2022-08-07T14:26:39.099Z,32.60
2022-08-07T14:30:05.897Z,32.60
2022-08-07T14:32:07.936Z,32.50
2022-08-07T14:34:46.160Z,32.60
2022-08-07T14:37:18.775Z,32.50
2022-08-07T14:40:15.466Z,32.50
2022-08-07T14:43:00.897Z,32.50
2022-08-07T14:45:46.815Z,32.50
2022-08-07T14:48:21.419Z,32.50
2022-08-07T14:50:54.234Z,32.40
2022-08-07T14:54:03.649Z,32.30
2022-08-07T14:56:30.172Z,32.30
2022-08-07T15:00:02.685Z,32.30
2022-08-07T15:01:58.364Z,32.30
2022-08-07T15:07:24.665Z,32.20
2022-08-07T15:10:25.105Z,32.20
2022-08-07T15:12:59.516Z,32.20
2022-08-07T15:15:38.975Z,32.20
2022-08-07T15:18:14.250Z,32.20
2022-08-07T15:21:08.231Z,32.20
2022-08-07T15:25:14.408Z,32.20
2022-08-07T15:26:54.987Z,32.20
2022-08-07T15:30:04.493Z,32.20
2022-08-07T15:32:39.545Z,32.10
2022-08-07T15:35:17.221Z,32.00
2022-08-07T15:38:04.852Z,32.00
2022-08-07T15:41:00.281Z,31.90
2022-08-07T15:43:55.742Z,31.80
2022-08-07T15:46:32.370Z,31.70
2022-08-07T15:49:18.943Z,31.60
2022-08-07T15:54:39.667Z,31.40
2022-08-07T15:57:39.867Z,31.30
2022-08-07T16:00:07.917Z,31.20
2022-08-07T16:02:46.572Z,31.20
2022-08-07T16:05:20.063Z,31.10
2022-08-07T16:08:31.704Z,31.10
2022-08-07T16:10:53.257Z,31.10
2022-08-07T16:13:58.373Z,31.00
2022-08-07T16:16:57.055Z,31.00
2022-08-07T16:20:00.024Z,31.00
2022-08-07T16:22:55.346Z,31.00
2022-08-07T16:26:03.171Z,31.00
2022-08-07T16:30:06.926Z,31.00
2022-08-07T16:31:57.448Z,31.00
2022-08-07T16:34:49.783Z,31.00
2022-08-07T16:38:07.200Z,31.00
2022-08-07T16:41:22.381Z,31.10
2022-08-07T16:44:40.472Z,31.10
2022-08-07T16:47:55.905Z,31.10
2022-08-07T16:50:52.678Z,31.10
2022-08-07T16:54:06.879Z,31.10
2022-08-07T16:56:53.536Z,31.10
2022-08-07T16:59:46.837Z,31.20
2022-08-07T17:02:52.919Z,31.20
2022-08-07T17:06:19.727Z,31.20
2022-08-07T17:09:09.483Z,31.20
2022-08-07T17:12:03.845Z,31.20
2022-08-07T17:14:37.184Z,31.30
2022-08-07T17:17:21.577Z,31.30
2022-08-07T17:20:03.197Z,31.30
2022-08-07T17:22:57.085Z,31.20
2022-08-07T17:25:47.653Z,31.30
2022-08-07T17:28:33.188Z,31.20
2022-08-07T17:31:16.201Z,31.20
2022-08-07T17:34:32.874Z,31.30
2022-08-07T17:36:57.883Z,31.20
2022-08-07T17:39:53.141Z,31.20
2022-08-07T17:42:59.784Z,31.20
2022-08-07T17:45:35.751Z,31.20
2022-08-07T17:48:12.734Z,31.10
2022-08-07T17:50:56.418Z,31.10
2022-08-07T17:54:01.768Z,31.00
2022-08-07T17:56:30.321Z,31.00
2022-08-07T17:59:10.955Z,30.90
2022-08-07T18:01:56.743Z,30.90
2022-08-07T18:04:34.531Z,30.80
2022-08-07T18:07:22.649Z,30.70
2022-08-07T18:10:06.110Z,30.70
2022-08-07T18:13:15.408Z,30.70
2022-08-07T18:16:05.758Z,30.60
2022-08-07T18:21:12.714Z,30.60
2022-08-07T18:21:57.911Z,30.50
2022-08-07T18:24:37.256Z,30.50
2022-08-07T18:27:25.087Z,30.40
2022-08-07T18:30:32.282Z,30.30
2022-08-07T18:34:28.609Z,30.20
2022-08-07T18:38:56.139Z,30.10
2022-08-07T18:40:40.511Z,29.90
2022-08-07T18:43:15.965Z,29.80
2022-08-07T18:46:24.726Z,29.60
2022-08-07T18:50:05.841Z,29.50
2022-08-07T18:52:35.136Z,29.30
2022-08-07T18:54:50.805Z,29.20
2022-08-07T18:57:39.335Z,29.00
2022-08-07T19:00:33.092Z,28.90
2022-08-07T19:03:12.379Z,28.80
2022-08-07T19:06:03.652Z,28.70
2022-08-07T19:08:47.135Z,28.60
2022-08-07T19:11:34.973Z,28.50
2022-08-07T19:14:16.911Z,28.40
2022-08-07T19:17:07.612Z,28.40
2022-08-07T19:19:53.157Z,28.20
2022-08-07T19:22:30.390Z,28.20
2022-08-07T19:25:05.682Z,28.10
2022-08-07T19:28:30.628Z,28.00
2022-08-07T19:31:01.611Z,27.90
2022-08-07T19:33:34.674Z,27.80
2022-08-07T19:36:08.921Z,27.70
2022-08-07T19:38:53.248Z,27.70
2022-08-07T19:41:44.568Z,27.50
2022-08-07T19:44:21.056Z,27.50
2022-08-07T19:46:57.680Z,27.40
2022-08-07T19:49:58.545Z,27.30
2022-08-07T19:52:19.463Z,27.20
2022-08-07T19:54:56.548Z,27.10
2022-08-07T19:58:01.225Z,27.00
2022-08-07T20:00:28.913Z,26.90
2022-08-07T20:03:03.768Z,26.90
2022-08-07T20:06:00.042Z,26.80
2022-08-07T20:08:30.152Z,26.70
2022-08-07T20:11:04.024Z,26.60
2022-08-07T20:13:47.041Z,26.50
2022-08-07T20:16:35.844Z,26.40
2022-08-07T20:19:10.393Z,26.30
2022-08-07T20:21:47.495Z,26.20
2022-08-07T20:24:21.055Z,26.10
2022-08-07T20:26:52.393Z,26.00
2022-08-07T20:29:48.179Z,26.00
2022-08-07T20:32:25.973Z,25.80
2022-08-07T20:34:58.081Z,25.80
2022-08-07T20:37:33.718Z,25.70
2022-08-07T20:40:31.630Z,25.60
2022-08-07T20:42:57.899Z,25.50
2022-08-07T20:45:33.265Z,25.40
2022-08-07T20:48:30.359Z,25.30
2022-08-07T20:51:03.196Z,25.20
2022-08-07T20:54:03.880Z,25.10
2022-08-07T20:56:28.122Z,25.10
2022-08-07T20:59:02.953Z,25.00
2022-08-07T21:01:45.711Z,24.90
2022-08-07T21:04:29.175Z,24.80
2022-08-07T21:07:04.287Z,24.80
2022-08-07T21:09:52.436Z,24.70
2022-08-07T21:12:31.508Z,24.60
2022-08-07T21:15:05.110Z,24.40
2022-08-07T21:18:06.600Z,24.40
2022-08-07T21:20:33.303Z,24.30
2022-08-07T21:23:09.212Z,24.20
2022-08-07T21:26:03.133Z,24.10
2022-08-07T21:28:49.464Z,24.00
2022-08-07T21:31:49.845Z,24.00
2022-08-07T21:34:31.893Z,23.80
2022-08-07T21:37:10.069Z,23.80
2022-08-07T21:39:51.456Z,23.60
2022-08-07T21:42:42.975Z,23.60
2022-08-07T21:46:09.455Z,23.60
2022-08-07T21:48:29.075Z,23.50
2022-08-07T21:51:19.240Z,23.40
2022-08-07T21:53:54.143Z,23.30
2022-08-07T21:56:36.242Z,23.30
2022-08-07T21:59:11.399Z,23.20
2022-08-07T22:02:11.450Z,23.10
2022-08-07T22:04:51.093Z,23.10
2022-08-07T22:07:31.716Z,23.00
2022-08-07T22:10:20.085Z,22.90
2022-08-07T22:12:55.041Z,22.80
2022-08-07T22:16:41.851Z,22.70
2022-08-07T22:18:25.503Z,22.70
2022-08-07T22:21:01.752Z,22.60
2022-08-07T22:23:40.377Z,22.70
2022-08-07T22:26:22.981Z,22.50
2022-08-07T22:29:00.903Z,22.40
2022-08-07T22:31:56.150Z,22.40
2022-08-07T22:34:49.691Z,22.30
2022-08-07T22:38:03.114Z,22.30
2022-08-07T22:40:43.790Z,22.20
2022-08-07T22:43:17.865Z,22.30
2022-08-07T22:46:21.219Z,22.10
2022-08-07T22:49:16.088Z,22.10
2022-08-07T22:52:01.620Z,22.00
2022-08-07T22:54:56.441Z,22.00
2022-08-07T22:57:54.040Z,21.90
2022-08-07T23:00:33.716Z,21.90
2022-08-07T23:03:29.767Z,21.80
2022-08-07T23:06:54.950Z,21.70
2022-08-07T23:10:06.295Z,21.70
2022-08-07T23:12:38.618Z,21.60
2022-08-07T23:16:04.962Z,21.50
2022-08-07T23:18:32.105Z,21.50
2022-08-07T23:21:21.063Z,21.60
2022-08-07T23:24:34.960Z,21.30
2022-08-07T23:27:33.817Z,21.30
2022-08-07T23:30:39.126Z,21.30
2022-08-07T23:34:35.634Z,21.20
2022-08-07T23:36:39.243Z,21.10
2022-08-07T23:39:22.074Z,21.10
2022-08-07T23:42:05.603Z,21.00
2022-08-07T23:45:15.003Z,21.00
2022-08-07T23:48:27.991Z,20.90
2022-08-07T23:51:04.027Z,21.10
2022-08-07T23:54:00.348Z,20.80
2022-08-07T23:56:41.666Z,20.80
